LAN1498 SCEL-SCSE
Flight info
| Callsign | LAN1498 |
|---|---|
| Flight time | 0h -46m |
| Altitude | 28000 |
| Route | DONTI UQ802 KUGAP KUGAP5 |
| Aircraft | A320/M-SDE3FGHIRWY/LB1 |
Departure
| Time | 2026-04-21 15:16 |
|---|---|
| Airport | Comodoro Arturo Merino Benítez International Airport (SCEL) |
Arrival
| Time | 2026-04-21 14:30 |
|---|---|
| Airport | La Florida Airport (SCSE) |
| Time | Latitude | Longitude | Altitude | Speed | Heading |
|---|---|---|---|---|---|
| 2026-04-21 14:30 | -29.91669 | -71.20341 | 483 ft | 0 kts | 205° |
| 2026-04-21 14:39 | -29.91660 | -71.20336 | 481 ft | 2 kts | 205° |
| 2026-04-21 14:40 | -29.91648 | -71.20329 | 483 ft | 2 kts | 201° |
| 2026-04-21 14:40 | -29.91636 | -71.20324 | 478 ft | 2 kts | 195° |
| 2026-04-21 14:40 | -29.91625 | -71.20320 | 483 ft | 1 kts | 170° |
| 2026-04-21 14:40 | -29.91616 | -71.20323 | 478 ft | 1 kts | 126° |
| 2026-04-21 14:41 | -29.91611 | -71.20330 | 477 ft | 1 kts | 121° |
| 2026-04-21 14:41 | -29.91608 | -71.20335 | 481 ft | 1 kts | 113° |
| 2026-04-21 14:41 | -29.91606 | -71.20341 | 479 ft | 1 kts | 116° |
| 2026-04-21 14:41 | -29.91605 | -71.20343 | 478 ft | 0 kts | 111° |
| 2026-04-21 14:42 | -29.91636 | -71.20271 | 476 ft | 19 kts | 117° |
| 2026-04-21 14:42 | -29.91642 | -71.20145 | 476 ft | 13 kts | 20° |
| 2026-04-21 14:42 | -29.91608 | -71.20065 | 475 ft | 14 kts | 100° |
| 2026-04-21 14:43 | -29.91653 | -71.19941 | 471 ft | 20 kts | 117° |
| 2026-04-21 14:43 | -29.91726 | -71.19778 | 475 ft | 26 kts | 117° |
| 2026-04-21 14:43 | -29.91817 | -71.19580 | 475 ft | 30 kts | 118° |
| 2026-04-21 14:43 | -29.91896 | -71.19378 | 478 ft | 3 kts | 67° |
| 2026-04-21 14:44 | -29.91880 | -71.19395 | 477 ft | 0 kts | 285° |
| 2026-04-21 14:46 | -29.91798 | -71.19616 | 477 ft | 70 kts | 300° |
| 2026-04-21 14:46 | -29.91468 | -71.20356 | 480 ft | 134 kts | 296° |
| 2026-04-21 14:46 | -29.91009 | -71.21400 | 941 ft | 148 kts | 297° |
| 2026-04-21 14:46 | -29.90565 | -71.22475 | 1682 ft | 149 kts | 295° |
| 2026-04-21 14:47 | -29.90125 | -71.23593 | 2218 ft | 162 kts | 294° |
| 2026-04-21 14:47 | -29.89626 | -71.24850 | 2616 ft | 181 kts | 292° |
| 2026-04-21 14:47 | -29.89502 | -71.26354 | 2956 ft | 203 kts | 255° |
| 2026-04-21 14:47 | -29.90381 | -71.27727 | 3348 ft | 232 kts | 213° |
| 2026-04-21 14:48 | -29.91992 | -71.28306 | 3778 ft | 258 kts | 185° |
| 2026-04-21 14:48 | -29.93855 | -71.28342 | 4445 ft | 274 kts | 178° |
| 2026-04-21 14:48 | -29.95784 | -71.28233 | 5342 ft | 281 kts | 177° |
| 2026-04-21 14:48 | -29.97093 | -71.28164 | 5907 ft | 287 kts | 178° |
| 2026-04-21 14:49 | -29.99117 | -71.28112 | 6724 ft | 295 kts | 180° |
| 2026-04-21 14:49 | -30.01200 | -71.28134 | 7566 ft | 301 kts | 182° |
| 2026-04-21 14:49 | -30.03307 | -71.28220 | 8434 ft | 306 kts | 184° |
| 2026-04-21 14:49 | -30.05459 | -71.28348 | 8854 ft | 310 kts | 184° |
| 2026-04-21 14:50 | -30.07613 | -71.28500 | 8975 ft | 310 kts | 185° |
| 2026-04-21 14:50 | -30.09769 | -71.28653 | 9105 ft | 314 kts | 184° |
| 2026-04-21 14:50 | -30.11966 | -71.28754 | 10015 ft | 315 kts | 182° |
| 2026-04-21 14:50 | -30.14214 | -71.28826 | 10543 ft | 334 kts | 182° |
| 2026-04-21 14:51 | -30.16623 | -71.28891 | 10823 ft | 358 kts | 182° |
| 2026-04-21 14:51 | -30.19202 | -71.28961 | 11060 ft | 382 kts | 182° |
| 2026-04-21 14:51 | -30.21943 | -71.29039 | 11268 ft | 404 kts | 182° |
| 2026-04-21 14:51 | -30.24780 | -71.29125 | 11829 ft | 412 kts | 182° |
| 2026-04-21 14:52 | -30.27669 | -71.29212 | 12519 ft | 417 kts | 183° |
| 2026-04-21 14:52 | -30.30583 | -71.29299 | 13217 ft | 420 kts | 183° |
| 2026-04-21 14:52 | -30.33520 | -71.29390 | 13919 ft | 424 kts | 183° |
| 2026-04-21 14:52 | -30.36480 | -71.29483 | 14551 ft | 426 kts | 184° |
| 2026-04-21 14:53 | -30.39456 | -71.29579 | 15174 ft | 428 kts | 184° |
| 2026-04-21 14:53 | -30.42442 | -71.29680 | 15815 ft | 431 kts | 185° |
| 2026-04-21 14:53 | -30.45439 | -71.29778 | 16446 ft | 432 kts | 185° |
| 2026-04-21 14:53 | -30.48447 | -71.29870 | 17056 ft | 434 kts | 186° |
| 2026-04-21 14:54 | -30.51478 | -71.29926 | 17635 ft | 438 kts | 182° |
| 2026-04-21 14:54 | -30.54531 | -71.29539 | 18221 ft | 445 kts | 173° |
| 2026-04-21 14:54 | -30.57542 | -71.28579 | 18724 ft | 453 kts | 164° |
| 2026-04-21 14:54 | -30.60433 | -71.27054 | 19199 ft | 461 kts | 156° |
| 2026-04-21 14:55 | -30.63271 | -71.25290 | 19641 ft | 464 kts | 156° |
| 2026-04-21 14:55 | -30.66126 | -71.23516 | 20067 ft | 467 kts | 156° |
| 2026-04-21 14:55 | -30.69010 | -71.21722 | 20523 ft | 471 kts | 156° |
| 2026-04-21 14:55 | -30.71906 | -71.19917 | 20956 ft | 473 kts | 156° |
| 2026-04-21 14:56 | -30.74774 | -71.18126 | 21369 ft | 477 kts | 156° |
| 2026-04-21 14:56 | -30.77741 | -71.16271 | 21732 ft | 480 kts | 156° |
| 2026-04-21 14:56 | -30.80698 | -71.14423 | 22118 ft | 483 kts | 157° |
| 2026-04-21 14:56 | -30.83665 | -71.12570 | 22527 ft | 486 kts | 157° |
| 2026-04-21 14:57 | -30.86616 | -71.10727 | 22909 ft | 489 kts | 157° |
| 2026-04-21 14:57 | -30.89624 | -71.08845 | 23284 ft | 492 kts | 157° |
| 2026-04-21 14:57 | -30.92664 | -71.06943 | 23670 ft | 496 kts | 158° |
| 2026-04-21 14:57 | -30.95709 | -71.05037 | 23990 ft | 498 kts | 158° |
| 2026-04-21 14:58 | -30.98765 | -71.03121 | 24305 ft | 500 kts | 158° |
| 2026-04-21 14:58 | -31.01832 | -71.01197 | 24611 ft | 503 kts | 158° |
| 2026-04-21 14:58 | -31.04924 | -70.99253 | 24902 ft | 505 kts | 157° |
| 2026-04-21 14:58 | -31.08027 | -70.97300 | 25191 ft | 508 kts | 157° |
| 2026-04-21 14:59 | -31.11139 | -70.95341 | 25481 ft | 510 kts | 158° |
| 2026-04-21 14:59 | -31.14270 | -70.93372 | 25769 ft | 512 kts | 158° |
| 2026-04-21 14:59 | -31.17410 | -70.91397 | 26084 ft | 514 kts | 158° |
| 2026-04-21 14:59 | -31.20571 | -70.89405 | 26342 ft | 517 kts | 158° |
| 2026-04-21 15:00 | -31.23741 | -70.87405 | 26721 ft | 517 kts | 158° |
| 2026-04-21 15:00 | -31.26897 | -70.85410 | 27041 ft | 518 kts | 158° |
| 2026-04-21 15:00 | -31.30118 | -70.83552 | 27167 ft | 511 kts | 166° |
| 2026-04-21 15:00 | -31.33493 | -70.82390 | 27180 ft | 499 kts | 176° |
| 2026-04-21 15:01 | -31.36894 | -70.81888 | 27177 ft | 488 kts | 185° |
| 2026-04-21 15:01 | -31.40268 | -70.81894 | 27176 ft | 480 kts | 192° |
| 2026-04-21 15:01 | -31.43540 | -70.82220 | 27181 ft | 478 kts | 193° |
| 2026-04-21 15:01 | -31.46846 | -70.82548 | 27174 ft | 478 kts | 193° |
| 2026-04-21 15:02 | -31.50161 | -70.82863 | 27169 ft | 478 kts | 192° |
| 2026-04-21 15:02 | -31.53479 | -70.83170 | 27169 ft | 477 kts | 192° |
| 2026-04-21 15:02 | -31.56781 | -70.83476 | 27167 ft | 477 kts | 193° |
| 2026-04-21 15:02 | -31.60087 | -70.83794 | 27158 ft | 477 kts | 193° |
| 2026-04-21 15:03 | -31.63393 | -70.84117 | 27156 ft | 477 kts | 193° |
| 2026-04-21 15:03 | -31.66673 | -70.84440 | 27159 ft | 468 kts | 193° |
| 2026-04-21 15:03 | -31.69943 | -70.84774 | 27185 ft | 477 kts | 193° |
| 2026-04-21 15:03 | -31.73282 | -70.85122 | 27178 ft | 485 kts | 193° |
| 2026-04-21 15:04 | -31.76705 | -70.85278 | 27165 ft | 501 kts | 186° |
| 2026-04-21 15:04 | -31.80221 | -70.85159 | 27153 ft | 510 kts | 185° |
| 2026-04-21 15:04 | -31.83727 | -70.85029 | 27600 ft | 496 kts | 186° |
| 2026-04-21 15:04 | -31.87149 | -70.84883 | 27787 ft | 487 kts | 186° |
| 2026-04-21 15:05 | -31.90492 | -70.84735 | 27876 ft | 470 kts | 186° |
| 2026-04-21 15:05 | -31.96939 | -70.84488 | 27902 ft | 471 kts | 186° |
| 2026-04-21 15:05 | -32.00246 | -70.84399 | 27794 ft | 477 kts | 186° |
| 2026-04-21 15:06 | -32.03576 | -70.84311 | 26623 ft | 481 kts | 186° |
| 2026-04-21 15:06 | -32.06944 | -70.84212 | 25373 ft | 485 kts | 185° |
| 2026-04-21 15:06 | -32.10320 | -70.84092 | 24280 ft | 487 kts | 184° |
| 2026-04-21 15:06 | -32.13669 | -70.83954 | 23964 ft | 470 kts | 184° |
| 2026-04-21 15:07 | -32.16861 | -70.83807 | 23845 ft | 449 kts | 185° |
| 2026-04-21 15:07 | -32.19914 | -70.83670 | 23726 ft | 431 kts | 185° |
| 2026-04-21 15:07 | -32.22859 | -70.83549 | 23588 ft | 414 kts | 185° |
| 2026-04-21 15:07 | -32.25706 | -70.83446 | 23154 ft | 405 kts | 185° |
| 2026-04-21 15:08 | -32.28501 | -70.83356 | 22723 ft | 400 kts | 185° |
| 2026-04-21 15:08 | -32.31233 | -70.83268 | 22429 ft | 382 kts | 185° |
| 2026-04-21 15:08 | -32.33846 | -70.83177 | 21759 ft | 371 kts | 185° |
| 2026-04-21 15:08 | -32.36404 | -70.83091 | 21002 ft | 365 kts | 185° |
| 2026-04-21 15:09 | -32.38926 | -70.83008 | 20263 ft | 361 kts | 184° |
| 2026-04-21 15:09 | -32.41385 | -70.82925 | 19710 ft | 352 kts | 184° |
| 2026-04-21 15:09 | -32.43800 | -70.82839 | 19449 ft | 336 kts | 184° |
| 2026-04-21 15:09 | -32.46111 | -70.82755 | 18957 ft | 329 kts | 184° |
| 2026-04-21 15:10 | -32.48384 | -70.82678 | 18371 ft | 326 kts | 184° |
| 2026-04-21 15:10 | -32.50641 | -70.82602 | 17667 ft | 324 kts | 184° |
| 2026-04-21 15:10 | -32.52892 | -70.82522 | 17403 ft | 325 kts | 183° |
| 2026-04-21 15:10 | -32.55181 | -70.82445 | 17262 ft | 334 kts | 184° |
| 2026-04-21 15:11 | -32.57494 | -70.82369 | 17101 ft | 337 kts | 183° |
| 2026-04-21 15:11 | -32.59865 | -70.82286 | 16939 ft | 334 kts | 183° |
| 2026-04-21 15:11 | -32.62104 | -70.82197 | 16802 ft | 317 kts | 183° |
| 2026-04-21 15:11 | -32.64253 | -70.82106 | 16633 ft | 301 kts | 183° |
| 2026-04-21 15:12 | -32.66325 | -70.82025 | 16269 ft | 289 kts | 183° |
| 2026-04-21 15:12 | -32.68279 | -70.81955 | 15823 ft | 287 kts | 182° |
| 2026-04-21 15:12 | -32.70273 | -70.81886 | 15344 ft | 286 kts | 182° |
| 2026-04-21 15:12 | -32.72253 | -70.81819 | 14882 ft | 284 kts | 182° |
| 2026-04-21 15:13 | -32.74231 | -70.81751 | 14421 ft | 283 kts | 182° |
| 2026-04-21 15:13 | -32.76198 | -70.81680 | 13958 ft | 283 kts | 181° |
| 2026-04-21 15:13 | -32.78168 | -70.81611 | 13452 ft | 283 kts | 181° |
| 2026-04-21 15:13 | -32.80137 | -70.81542 | 12985 ft | 282 kts | 181° |
| 2026-04-21 15:14 | -32.82095 | -70.81472 | 12529 ft | 281 kts | 181° |
| 2026-04-21 15:14 | -32.84049 | -70.81400 | 12084 ft | 279 kts | 181° |
| 2026-04-21 15:14 | -32.86032 | -70.81329 | 11362 ft | 293 kts | 181° |
| 2026-04-21 15:14 | -32.88094 | -70.81256 | 10907 ft | 298 kts | 180° |
| 2026-04-21 15:15 | -32.90180 | -70.81178 | 10444 ft | 303 kts | 180° |
| 2026-04-21 15:15 | -32.92303 | -70.81101 | 10073 ft | 304 kts | 180° |
| 2026-04-21 15:15 | -32.94389 | -70.81005 | 9812 ft | 296 kts | 179° |
| 2026-04-21 15:15 | -32.96435 | -70.80893 | 9299 ft | 292 kts | 179° |
| 2026-04-21 15:16 | -32.98447 | -70.80778 | 8787 ft | 287 kts | 179° |
| 2026-04-21 15:16 | -33.00443 | -70.80665 | 8204 ft | 285 kts | 179° |
| 2026-04-21 15:16 | -33.02412 | -70.80555 | 7613 ft | 282 kts | 178° |
| 2026-04-21 15:16 | -33.04355 | -70.80448 | 7111 ft | 276 kts | 178° |
| 2026-04-21 15:17 | -33.06252 | -70.80345 | 6660 ft | 271 kts | 178° |
| 2026-04-21 15:17 | -33.08115 | -70.80246 | 6222 ft | 267 kts | 178° |
| 2026-04-21 15:17 | -33.09964 | -70.80149 | 5800 ft | 263 kts | 178° |
| 2026-04-21 15:17 | -33.11766 | -70.80054 | 5516 ft | 251 kts | 178° |
| 2026-04-21 15:18 | -33.13447 | -70.79965 | 5453 ft | 236 kts | 178° |
| 2026-04-21 15:18 | -33.15061 | -70.79880 | 5367 ft | 228 kts | 178° |
| 2026-04-21 15:18 | -33.16626 | -70.79798 | 5272 ft | 222 kts | 178° |
| 2026-04-21 15:18 | -33.18141 | -70.79716 | 5188 ft | 214 kts | 178° |
| 2026-04-21 15:19 | -33.19615 | -70.79636 | 5023 ft | 210 kts | 178° |
| 2026-04-21 15:19 | -33.21037 | -70.79560 | 4775 ft | 204 kts | 178° |
| 2026-04-21 15:19 | -33.22468 | -70.79483 | 4498 ft | 202 kts | 178° |
| 2026-04-21 15:19 | -33.23856 | -70.79409 | 4233 ft | 199 kts | 178° |
| 2026-04-21 15:20 | -33.25221 | -70.79336 | 3978 ft | 193 kts | 178° |
| 2026-04-21 15:20 | -33.26488 | -70.79267 | 3739 ft | 172 kts | 178° |
| 2026-04-21 15:20 | -33.27625 | -70.79207 | 3515 ft | 156 kts | 178° |
| 2026-04-21 15:20 | -33.28676 | -70.79150 | 3319 ft | 148 kts | 178° |
| 2026-04-21 15:21 | -33.29692 | -70.79096 | 3124 ft | 145 kts | 178° |
| 2026-04-21 15:21 | -33.30679 | -70.79043 | 2928 ft | 143 kts | 178° |
| 2026-04-21 15:21 | -33.31675 | -70.78990 | 2737 ft | 143 kts | 178° |
| 2026-04-21 15:21 | -33.32664 | -70.78937 | 2542 ft | 142 kts | 178° |
| 2026-04-21 15:22 | -33.33651 | -70.78884 | 2350 ft | 142 kts | 179° |
| 2026-04-21 15:22 | -33.34638 | -70.78833 | 2173 ft | 142 kts | 179° |
| 2026-04-21 15:22 | -33.35624 | -70.78778 | 1972 ft | 142 kts | 179° |
| 2026-04-21 15:22 | -33.36606 | -70.78723 | 1813 ft | 141 kts | 180° |
| 2026-04-21 15:23 | -33.37588 | -70.78675 | 1642 ft | 141 kts | 179° |
| 2026-04-21 15:23 | -33.38550 | -70.78636 | 1567 ft | 129 kts | 179° |
| 2026-04-21 15:23 | -33.39190 | -70.78596 | 1564 ft | 28 kts | 177° |
| 2026-04-21 15:23 | -33.39351 | -70.78585 | 1564 ft | 20 kts | 176° |
| 2026-04-21 15:24 | -33.39489 | -70.78593 | 1563 ft | 21 kts | 193° |
| 2026-04-21 15:24 | -33.39634 | -70.78660 | 1564 ft | 21 kts | 206° |
| 2026-04-21 15:24 | -33.39740 | -70.78755 | 1565 ft | 20 kts | 252° |
| 2026-04-21 15:24 | -33.39714 | -70.78877 | 1564 ft | 11 kts | 345° |
| 2026-04-21 15:25 | -33.39659 | -70.78880 | 1564 ft | 7 kts | 352° |
| 2026-04-21 15:25 | -33.39605 | -70.78885 | 1565 ft | 13 kts | 0° |
| 2026-04-21 15:25 | -33.39498 | -70.78925 | 1564 ft | 17 kts | 298° |
| 2026-04-21 15:25 | -33.39498 | -70.78996 | 1564 ft | 6 kts | 241° |
| 2026-04-21 15:26 | -33.39532 | -70.79013 | 1564 ft | 5 kts | 187° |
| 2026-04-21 15:26 | -33.39563 | -70.79017 | 1564 ft | 4 kts | 185° |
| 2026-04-21 15:26 | -33.39568 | -70.79017 | 1564 ft | 0 kts | 185° |